sim
Sign-in with your pilot id or email,
or register
Callsign
Passwort

Schedule Details

Flight Number: DLH1820 (1)
Departure: Munich Airport (EDDM) at 14:50
Arrival: Palma de Mallorca Airport (LEPA) at 16:50
Route: Lufthansa Passenger Schedule. Enter filed route here before submitting Pirep.

Weather Information
Getting current METAR information for EDDM 231120Z 23007KT 9999 FEW007 BKN033 16/15 Q1010 NOSIG
Getting current METAR information for LEPA 231100Z 23010KT 200V260 9999 FEW020 27/22 Q1013 NOSIG

Schedule Frequency

Route Map